Terminal Aerodrome Forecast
Issued by NWS

Home | Current Version | Previous Version | Text Only | Print | Product List | Glossary On
Versions: 1 2 3 4 5 6 7 8 9 10 11 12 13 14 15 16
000
FTAK31 PAFA 272041 AAC
TAFAFA
TAF AMD
PAFA 272041Z 2721/2824 08005KT P6SM VCSH FEW040 SCT100 SCT200
     FM280800 04003KT P6SM SCT070 BKN150
     FM282100 20008KT P6SM VCSH SCT060 BKN100 BKN200=

USA.gov is the U.S. government's official web portal to all federal, state and local government web resources and services.